createdAt,value
2022-08-30T00:00:39.337Z,98738.44
2022-08-30T00:05:43.749Z,98737.81
2022-08-30T00:10:46.765Z,98738.22
2022-08-30T00:15:49.557Z,98734.97
2022-08-30T00:20:52.476Z,98737.00
2022-08-30T00:25:55.478Z,98742.63
2022-08-30T00:30:58.628Z,98739.78
2022-08-30T00:36:00.633Z,98733.31
2022-08-30T00:41:02.473Z,98745.84
2022-08-30T00:46:08.372Z,98743.78
2022-08-30T00:51:14.231Z,98743.00
2022-08-30T00:56:18.054Z,98736.94
2022-08-30T01:01:21.046Z,98738.09
2022-08-30T01:06:22.976Z,98735.66
2022-08-30T01:11:25.436Z,98736.66
2022-08-30T01:16:27.378Z,98741.72
2022-08-30T01:22:05.725Z,98727.59
2022-08-30T01:27:07.520Z,98738.50
2022-08-30T01:32:21.043Z,98733.63
2022-08-30T01:37:30.238Z,98733.22
2022-08-30T01:42:32.511Z,98725.53
2022-08-30T01:47:35.363Z,98732.59
2022-08-30T01:52:37.959Z,98742.28
2022-08-30T01:57:39.806Z,98739.44
2022-08-30T02:02:41.675Z,98741.84
2022-08-30T02:07:43.610Z,98732.72
2022-08-30T02:12:45.559Z,98737.56
2022-08-30T02:17:47.689Z,98738.75
2022-08-30T02:22:49.668Z,98739.13
2022-08-30T02:27:51.567Z,98736.72
2022-08-30T02:32:53.346Z,98734.28
2022-08-30T02:37:58.311Z,98737.28
2022-08-30T02:43:00.635Z,98735.06
2022-08-30T02:48:02.838Z,98738.88
2022-08-30T02:53:04.699Z,98734.81
2022-08-30T02:58:08.238Z,98737.63
2022-08-30T03:03:10.121Z,98732.78
2022-08-30T03:08:11.938Z,98736.41
2022-08-30T03:13:14.077Z,98730.72
2022-08-30T03:18:17.341Z,98735.34
2022-08-30T03:23:21.781Z,98736.34
2022-08-30T03:28:24.298Z,98739.97
2022-08-30T03:33:26.781Z,98738.56
2022-08-30T03:38:29.547Z,98735.31
2022-08-30T03:43:33.615Z,98729.84
2022-08-30T03:48:36.051Z,98735.28
2022-08-30T03:53:37.957Z,98733.03
2022-08-30T03:58:40.827Z,98723.13
2022-08-30T04:03:43.042Z,98727.13
2022-08-30T04:08:46.310Z,98730.94
2022-08-30T04:13:49.687Z,98733.94
2022-08-30T04:18:51.575Z,98735.13
2022-08-30T04:23:53.356Z,98747.59
2022-08-30T04:28:55.776Z,98737.31
2022-08-30T04:33:57.801Z,98743.38
2022-08-30T04:38:59.707Z,98745.78
2022-08-30T04:44:03.737Z,98758.09
2022-08-30T04:49:05.599Z,98759.50
2022-08-30T04:54:08.735Z,98762.75
2022-08-30T04:59:10.747Z,98756.94
2022-08-30T05:04:13.865Z,98764.88
2022-08-30T05:09:16.081Z,98766.72
2022-08-30T05:14:18.100Z,98772.81
2022-08-30T05:19:20.211Z,98773.69
2022-08-30T05:24:22.187Z,98781.41
2022-08-30T05:29:25.080Z,98782.44
2022-08-30T05:34:30.519Z,98791.97
2022-08-30T05:39:44.971Z,98789.22
2022-08-30T05:44:54.406Z,98782.81
2022-08-30T05:49:56.319Z,98792.13
2022-08-30T05:55:04.367Z,98795.41
2022-08-30T06:00:10.672Z,98791.03
2022-08-30T06:05:15.498Z,98797.75
2022-08-30T06:10:17.795Z,98802.44
2022-08-30T06:15:19.767Z,98795.19
2022-08-30T06:20:21.654Z,98795.81
2022-08-30T06:25:23.647Z,98789.41
2022-08-30T06:30:25.993Z,98790.03
2022-08-30T06:35:30.701Z,98788.84
2022-08-30T06:40:36.619Z,98790.47
2022-08-30T06:45:38.831Z,98794.13
2022-08-30T06:50:42.476Z,98792.31
2022-08-30T06:55:44.396Z,98790.94
2022-08-30T07:00:46.961Z,98796.41
2022-08-30T07:05:49.429Z,98790.94
2022-08-30T07:10:54.651Z,98790.13
2022-08-30T07:15:57.840Z,98789.31
2022-08-30T07:21:07.952Z,98790.09
2022-08-30T07:26:15.081Z,98786.63
2022-08-30T07:31:19.909Z,98800.59
2022-08-30T07:36:22.561Z,98816.75
2022-08-30T07:41:34.287Z,98813.91
2022-08-30T07:46:39.227Z,98824.81
2022-08-30T07:51:41.588Z,98818.47
2022-08-30T07:56:43.461Z,98819.63
2022-08-30T08:01:45.309Z,98822.66
2022-08-30T08:06:47.917Z,98823.66
2022-08-30T08:11:50.385Z,98817.75
2022-08-30T08:16:52.784Z,98811.41
2022-08-30T08:22:15.660Z,98822.13
2022-08-30T08:27:19.269Z,98827.41
2022-08-30T08:32:21.321Z,98830.59
2022-08-30T08:37:26.695Z,98826.09
2022-08-30T08:42:37.057Z,98829.69
2022-08-30T08:47:48.369Z,98826.38
2022-08-30T08:53:25.080Z,98824.84
2022-08-30T08:58:31.170Z,98822.16
2022-08-30T09:03:33.316Z,98818.81
2022-08-30T09:08:37.201Z,98821.78
2022-08-30T09:13:39.085Z,98820.91
2022-08-30T09:24:15.764Z,98806.00
2022-08-30T09:29:23.256Z,98814.81
2022-08-30T09:34:25.075Z,98810.66
2022-08-30T09:39:30.487Z,98814.84
2022-08-30T09:44:37.745Z,98811.47
2022-08-30T09:49:43.270Z,98804.63
2022-08-30T09:54:58.265Z,98788.69
2022-08-30T10:00:18.625Z,98794.13
2022-08-30T10:05:49.998Z,98793.53
2022-08-30T10:11:03.037Z,98797.25
2022-08-30T10:16:18.076Z,98788.78
2022-08-30T10:21:54.368Z,98796.06
2022-08-30T10:27:23.992Z,98788.06
2022-08-30T10:32:39.995Z,98784.09
2022-08-30T10:37:48.640Z,98772.50
2022-08-30T10:42:56.648Z,98782.28
2022-08-30T10:48:12.105Z,98776.97
2022-08-30T10:53:22.751Z,98775.31
2022-08-30T10:58:25.078Z,98781.56
2022-08-30T11:03:51.754Z,98783.00
2022-08-30T11:09:24.591Z,98781.50
2022-08-30T11:14:30.548Z,98773.25
2022-08-30T11:19:40.842Z,98773.09
2022-08-30T11:25:10.135Z,98767.59
2022-08-30T11:30:26.418Z,98760.72
2022-08-30T11:35:48.432Z,98759.38
2022-08-30T11:40:58.025Z,98763.28
2022-08-30T11:46:17.130Z,98749.25
2022-08-30T11:51:24.160Z,98758.78
2022-08-30T11:56:47.000Z,98754.19
2022-08-30T12:01:51.943Z,98750.50
2022-08-30T12:07:05.880Z,98748.22
2022-08-30T12:12:09.507Z,98749.13
2022-08-30T12:18:15.545Z,98745.69
2022-08-30T12:23:38.233Z,98743.59
2022-08-30T12:28:49.706Z,98726.69
2022-08-30T12:34:00.722Z,98723.91
2022-08-30T12:39:24.508Z,98716.13
2022-08-30T12:44:28.642Z,98713.97
2022-08-30T12:49:37.081Z,98719.31
2022-08-30T12:54:41.394Z,98712.31
2022-08-30T12:59:54.044Z,98713.13
2022-08-30T13:04:58.195Z,98714.97
2022-08-30T13:10:14.576Z,98707.69
2022-08-30T13:15:27.695Z,98707.59
2022-08-30T13:20:29.604Z,98700.91
2022-08-30T13:25:33.060Z,98707.94
2022-08-30T13:30:35.955Z,98710.47
2022-08-30T13:35:38.095Z,98704.59
2022-08-30T13:40:41.920Z,98696.31
2022-08-30T13:45:44.115Z,98704.81
2022-08-30T13:50:46.415Z,98700.47
2022-08-30T13:55:48.422Z,98704.16
2022-08-30T14:00:51.176Z,98699.88
2022-08-30T14:06:29.525Z,98690.81
2022-08-30T14:11:22.416Z,98689.78
2022-08-30T14:16:28.043Z,98700.66
2022-08-30T14:21:30.335Z,98701.69
2022-08-30T14:26:39.680Z,98690.56
2022-08-30T14:31:42.900Z,98687.91
2022-08-30T14:36:46.799Z,98689.41
2022-08-30T14:41:53.023Z,98682.03
2022-08-30T14:46:56.166Z,98677.69
2022-08-30T14:51:58.987Z,98692.28
2022-08-30T14:57:01.226Z,98688.47
2022-08-30T15:02:03.243Z,98690.53
2022-08-30T15:07:05.265Z,98692.03
2022-08-30T15:12:07.618Z,98678.81
2022-08-30T15:17:09.845Z,98668.81
2022-08-30T15:22:12.079Z,98677.09
2022-08-30T15:27:17.474Z,98667.56
2022-08-30T15:32:19.660Z,98663.75
2022-08-30T15:37:27.867Z,98655.91
2022-08-30T15:42:34.163Z,98665.22
2022-08-30T15:47:36.353Z,98665.22
2022-08-30T15:52:38.963Z,98663.97
2022-08-30T15:57:41.128Z,98667.91
2022-08-30T16:02:44.213Z,98671.09
2022-08-30T16:07:47.134Z,98672.50
2022-08-30T16:12:51.107Z,98660.41
2022-08-30T16:17:53.075Z,98671.44
2022-08-30T16:22:55.010Z,98663.41
2022-08-30T16:27:57.565Z,98662.25
2022-08-30T16:32:59.907Z,98659.25
2022-08-30T16:38:02.125Z,98652.25
2022-08-30T16:43:06.392Z,98662.94
2022-08-30T16:48:09.986Z,98657.28
2022-08-30T16:53:14.553Z,98654.53
2022-08-30T16:58:18.953Z,98645.66
2022-08-30T17:03:24.420Z,98647.16
2022-08-30T17:08:27.451Z,98651.72
2022-08-30T17:13:30.426Z,98651.00
2022-08-30T17:18:36.060Z,98668.34
2022-08-30T17:23:39.196Z,98674.06
2022-08-30T17:28:41.567Z,98671.88
2022-08-30T17:33:45.574Z,98680.25
2022-08-30T17:38:48.232Z,98683.91
2022-08-30T17:43:51.243Z,98685.63
2022-08-30T17:48:58.072Z,98687.09
2022-08-30T17:54:05.393Z,98687.78
2022-08-30T17:59:11.910Z,98689.47
2022-08-30T18:04:19.690Z,98701.28
2022-08-30T18:09:23.602Z,98705.41
2022-08-30T18:14:26.157Z,98703.19
2022-08-30T18:19:32.186Z,98712.16
2022-08-30T18:24:35.334Z,98712.00
2022-08-30T18:29:38.757Z,98713.47
2022-08-30T18:35:06.102Z,98717.00
2022-08-30T18:40:09.851Z,98718.69
2022-08-30T18:45:15.115Z,98722.00
2022-08-30T18:50:17.834Z,98725.28
2022-08-30T18:55:22.106Z,98725.91
2022-08-30T19:00:24.058Z,98725.75
2022-08-30T19:05:26.446Z,98736.16
2022-08-30T19:10:33.188Z,98734.41
2022-08-30T19:15:36.476Z,98727.78
2022-08-30T19:20:38.544Z,98734.53
2022-08-30T19:25:43.738Z,98738.63
2022-08-30T19:30:46.236Z,98748.00
2022-08-30T19:35:51.180Z,98737.31
2022-08-30T19:41:01.058Z,98729.81
2022-08-30T19:46:03.575Z,98750.34
2022-08-30T19:51:10.072Z,98746.50
2022-08-30T19:56:13.488Z,98742.47
2022-08-30T20:01:32.856Z,98746.13
2022-08-30T20:06:36.066Z,98740.50
2022-08-30T20:11:42.381Z,98741.72
2022-08-30T20:16:47.566Z,98738.72
2022-08-30T20:21:50.112Z,98740.38
2022-08-30T20:26:52.197Z,98734.94
2022-08-30T20:31:54.098Z,98741.44
2022-08-30T20:36:57.579Z,98740.22
2022-08-30T20:41:59.522Z,98739.03
2022-08-30T20:47:01.605Z,98748.38
2022-08-30T20:52:04.959Z,98742.94
2022-08-30T20:57:07.277Z,98740.13
2022-08-30T21:02:09.206Z,98756.59
2022-08-30T21:07:12.954Z,98756.63
2022-08-30T21:12:14.904Z,98751.38
2022-08-30T21:17:18.261Z,98760.72
2022-08-30T21:22:20.144Z,98750.81
2022-08-30T21:27:22.492Z,98758.56
2022-08-30T21:32:24.537Z,98753.31
2022-08-30T21:37:27.250Z,98748.66
2022-08-30T21:42:29.179Z,98760.63
2022-08-30T21:47:31.325Z,98758.84
2022-08-30T21:52:36.368Z,98759.69
2022-08-30T21:57:38.214Z,98762.13
2022-08-30T22:02:40.096Z,98760.28
2022-08-30T22:07:42.131Z,98761.91
2022-08-30T22:12:47.625Z,98766.78
2022-08-30T22:17:49.470Z,98774.28
2022-08-30T22:22:51.367Z,98773.91
2022-08-30T22:27:53.324Z,98770.88
2022-08-30T22:32:55.541Z,98760.97
2022-08-30T22:37:57.572Z,98757.13
2022-08-30T22:43:00.514Z,98763.59
2022-08-30T22:48:02.557Z,98769.88
2022-08-30T22:53:05.515Z,98771.50
2022-08-30T22:58:07.522Z,98779.78
2022-08-30T23:03:09.312Z,98787.66
2022-08-30T23:08:11.432Z,98788.88
2022-08-30T23:13:13.346Z,98794.56
2022-08-30T23:18:15.288Z,98789.91
2022-08-30T23:23:35.834Z,98781.81
2022-08-30T23:28:56.218Z,98786.88
2022-08-30T23:34:16.489Z,98785.69
2022-08-30T23:39:36.937Z,98779.41
2022-08-30T23:44:57.113Z,98771.94
2022-08-30T23:50:17.580Z,98769.69
2022-08-30T23:55:37.857Z,98769.28
